sensor_id;sensor_type;location;lat;lon;timestamp;temperature;humidity
41116;DHT22;26861;51.824;4.682;2023-02-21T00:02:17;15.10;62.90
41116;DHT22;26861;51.824;4.682;2023-02-21T00:05:01;15.10;62.80
41116;DHT22;26861;51.824;4.682;2023-02-21T00:07:45;15.10;62.90
41116;DHT22;26861;51.824;4.682;2023-02-21T00:10:29;15.10;62.80
41116;DHT22;26861;51.824;4.682;2023-02-21T00:13:13;15.10;62.90
41116;DHT22;26861;51.824;4.682;2023-02-21T00:15:57;15.20;63.00
41116;DHT22;26861;51.824;4.682;2023-02-21T00:18:41;15.20;62.90
41116;DHT22;26861;51.824;4.682;2023-02-21T00:21:27;15.10;62.80
41116;DHT22;26861;51.824;4.682;2023-02-21T00:24:17;15.10;62.90
41116;DHT22;26861;51.824;4.682;2023-02-21T00:27:01;15.10;62.90
41116;DHT22;26861;51.824;4.682;2023-02-21T00:29:47;15.10;62.90
41116;DHT22;26861;51.824;4.682;2023-02-21T00:32:31;15.10;62.90
41116;DHT22;26861;51.824;4.682;2023-02-21T00:35:15;15.10;62.80
41116;DHT22;26861;51.824;4.682;2023-02-21T00:37:59;15.20;63.50
41116;DHT22;26861;51.824;4.682;2023-02-21T00:40:43;15.10;62.70
41116;DHT22;26861;51.824;4.682;2023-02-21T00:43:29;15.20;62.80
41116;DHT22;26861;51.824;4.682;2023-02-21T00:46:13;15.10;62.80
41116;DHT22;26861;51.824;4.682;2023-02-21T00:48:58;15.10;62.80
41116;DHT22;26861;51.824;4.682;2023-02-21T00:51:42;15.10;62.80
41116;DHT22;26861;51.824;4.682;2023-02-21T00:54:26;15.10;62.80
41116;DHT22;26861;51.824;4.682;2023-02-21T00:57:10;15.10;62.80
41116;DHT22;26861;51.824;4.682;2023-02-21T00:59:54;15.10;62.70
41116;DHT22;26861;51.824;4.682;2023-02-21T01:02:38;15.10;62.70
41116;DHT22;26861;51.824;4.682;2023-02-21T01:05:22;15.10;62.80
41116;DHT22;26861;51.824;4.682;2023-02-21T01:08:06;15.10;62.80
41116;DHT22;26861;51.824;4.682;2023-02-21T01:10:50;15.10;62.80
41116;DHT22;26861;51.824;4.682;2023-02-21T01:13:34;15.10;62.70
41116;DHT22;26861;51.824;4.682;2023-02-21T01:16:18;15.10;62.80
41116;DHT22;26861;51.824;4.682;2023-02-21T01:19:02;15.10;62.80
41116;DHT22;26861;51.824;4.682;2023-02-21T01:21:47;15.10;62.80
41116;DHT22;26861;51.824;4.682;2023-02-21T01:24:31;15.10;62.80
41116;DHT22;26861;51.824;4.682;2023-02-21T01:27:15;15.10;62.80
41116;DHT22;26861;51.824;4.682;2023-02-21T01:29:59;15.10;62.80
41116;DHT22;26861;51.824;4.682;2023-02-21T01:32:43;15.10;62.90
41116;DHT22;26861;51.824;4.682;2023-02-21T01:35:27;15.10;62.80
41116;DHT22;26861;51.824;4.682;2023-02-21T01:38:11;15.10;62.80
41116;DHT22;26861;51.824;4.682;2023-02-21T01:40:55;15.10;62.80
41116;DHT22;26861;51.824;4.682;2023-02-21T01:43:56;15.10;62.90
41116;DHT22;26861;51.824;4.682;2023-02-21T01:46:41;15.10;62.90
41116;DHT22;26861;51.824;4.682;2023-02-21T01:49:25;15.10;62.90
41116;DHT22;26861;51.824;4.682;2023-02-21T01:52:09;15.10;62.90
41116;DHT22;26861;51.824;4.682;2023-02-21T01:54:54;15.10;62.90
41116;DHT22;26861;51.824;4.682;2023-02-21T01:57:39;15.10;62.90
41116;DHT22;26861;51.824;4.682;2023-02-21T02:00:24;15.10;63.00
41116;DHT22;26861;51.824;4.682;2023-02-21T02:03:11;15.10;62.90
41116;DHT22;26861;51.824;4.682;2023-02-21T02:06:08;15.00;63.00
41116;DHT22;26861;51.824;4.682;2023-02-21T02:08:53;15.10;63.60
41116;DHT22;26861;51.824;4.682;2023-02-21T02:25:51;15.00;62.90
41116;DHT22;26861;51.824;4.682;2023-02-21T02:31:46;15.00;62.90
41116;DHT22;26861;51.824;4.682;2023-02-21T02:42:39;15.00;62.90
41116;DHT22;26861;51.824;4.682;2023-02-21T02:47:58;15.00;62.90
41116;DHT22;26861;51.824;4.682;2023-02-21T02:50:26;15.00;63.00
41116;DHT22;26861;51.824;4.682;2023-02-21T02:52:54;15.00;63.00
41116;DHT22;26861;51.824;4.682;2023-02-21T02:55:33;15.00;63.00
41116;DHT22;26861;51.824;4.682;2023-02-21T02:58:01;15.00;63.00
41116;DHT22;26861;51.824;4.682;2023-02-21T03:00:27;15.00;63.00
41116;DHT22;26861;51.824;4.682;2023-02-21T03:05:45;15.00;62.90
41116;DHT22;26861;51.824;4.682;2023-02-21T03:11:19;15.00;63.00
41116;DHT22;26861;51.824;4.682;2023-02-21T03:14:06;15.00;63.00
41116;DHT22;26861;51.824;4.682;2023-02-21T03:16:40;15.00;63.00
41116;DHT22;26861;51.824;4.682;2023-02-21T03:19:13;15.00;63.00
41116;DHT22;26861;51.824;4.682;2023-02-21T03:21:47;15.00;63.00
41116;DHT22;26861;51.824;4.682;2023-02-21T03:24:15;15.00;63.00
41116;DHT22;26861;51.824;4.682;2023-02-21T03:26:44;15.00;63.00
41116;DHT22;26861;51.824;4.682;2023-02-21T03:29:11;15.00;63.00
41116;DHT22;26861;51.824;4.682;2023-02-21T03:31:44;15.00;63.00
41116;DHT22;26861;51.824;4.682;2023-02-21T03:34:11;15.00;63.00
41116;DHT22;26861;51.824;4.682;2023-02-21T03:36:37;15.00;63.00
41116;DHT22;26861;51.824;4.682;2023-02-21T03:39:04;15.00;63.10
41116;DHT22;26861;51.824;4.682;2023-02-21T03:41:30;15.00;63.00
41116;DHT22;26861;51.824;4.682;2023-02-21T03:43:55;15.00;63.00
41116;DHT22;26861;51.824;4.682;2023-02-21T03:46:21;14.90;63.00
41116;DHT22;26861;51.824;4.682;2023-02-21T03:48:47;15.00;63.00
41116;DHT22;26861;51.824;4.682;2023-02-21T03:51:13;15.00;63.10
41116;DHT22;26861;51.824;4.682;2023-02-21T03:53:39;15.00;63.00
41116;DHT22;26861;51.824;4.682;2023-02-21T03:56:05;15.00;63.00
41116;DHT22;26861;51.824;4.682;2023-02-21T03:58:32;15.00;63.00
41116;DHT22;26861;51.824;4.682;2023-02-21T04:00:58;15.30;72.20
41116;DHT22;26861;51.824;4.682;2023-02-21T04:03:24;14.90;63.10
41116;DHT22;26861;51.824;4.682;2023-02-21T04:05:49;15.00;63.00
41116;DHT22;26861;51.824;4.682;2023-02-21T04:08:15;15.00;63.10
41116;DHT22;26861;51.824;4.682;2023-02-21T04:10:41;15.00;63.10
41116;DHT22;26861;51.824;4.682;2023-02-21T04:13:06;15.00;63.10
41116;DHT22;26861;51.824;4.682;2023-02-21T04:15:33;14.90;63.00
41116;DHT22;26861;51.824;4.682;2023-02-21T04:17:59;15.00;63.10
41116;DHT22;26861;51.824;4.682;2023-02-21T04:20:24;15.00;63.10
41116;DHT22;26861;51.824;4.682;2023-02-21T04:22:50;14.90;63.10
41116;DHT22;26861;51.824;4.682;2023-02-21T04:25:16;15.00;63.10
41116;DHT22;26861;51.824;4.682;2023-02-21T04:27:41;15.00;63.10
41116;DHT22;26861;51.824;4.682;2023-02-21T04:30:07;15.00;63.20
41116;DHT22;26861;51.824;4.682;2023-02-21T04:32:34;15.00;63.10
41116;DHT22;26861;51.824;4.682;2023-02-21T04:35:00;14.90;63.10
41116;DHT22;26861;51.824;4.682;2023-02-21T04:37:25;14.90;63.10
41116;DHT22;26861;51.824;4.682;2023-02-21T04:39:51;14.90;63.10
41116;DHT22;26861;51.824;4.682;2023-02-21T04:42:16;14.90;63.20
41116;DHT22;26861;51.824;4.682;2023-02-21T04:44:42;14.90;63.30
41116;DHT22;26861;51.824;4.682;2023-02-21T04:47:08;14.90;63.30
41116;DHT22;26861;51.824;4.682;2023-02-21T04:49:33;14.90;63.40
41116;DHT22;26861;51.824;4.682;2023-02-21T04:51:59;14.90;63.40
41116;DHT22;26861;51.824;4.682;2023-02-21T04:54:25;14.90;63.40
41116;DHT22;26861;51.824;4.682;2023-02-21T04:56:51;15.00;63.40
41116;DHT22;26861;51.824;4.682;2023-02-21T04:59:17;14.90;63.40
41116;DHT22;26861;51.824;4.682;2023-02-21T05:01:43;14.90;63.40
41116;DHT22;26861;51.824;4.682;2023-02-21T05:04:09;14.90;63.40
41116;DHT22;26861;51.824;4.682;2023-02-21T05:06:35;15.00;63.40
41116;DHT22;26861;51.824;4.682;2023-02-21T05:09:01;15.00;63.50
41116;DHT22;26861;51.824;4.682;2023-02-21T05:11:27;15.00;63.50
41116;DHT22;26861;51.824;4.682;2023-02-21T05:13:53;15.00;63.50
41116;DHT22;26861;51.824;4.682;2023-02-21T05:16:19;15.00;63.60
41116;DHT22;26861;51.824;4.682;2023-02-21T05:18:46;15.00;63.50
41116;DHT22;26861;51.824;4.682;2023-02-21T05:21:13;15.00;63.50
41116;DHT22;26861;51.824;4.682;2023-02-21T05:23:40;15.00;64.20
41116;DHT22;26861;51.824;4.682;2023-02-21T05:26:12;15.00;63.50
41116;DHT22;26861;51.824;4.682;2023-02-21T05:28:39;15.00;63.50
41116;DHT22;26861;51.824;4.682;2023-02-21T05:31:05;15.00;63.70
41116;DHT22;26861;51.824;4.682;2023-02-21T05:33:32;15.00;63.70
41116;DHT22;26861;51.824;4.682;2023-02-21T05:35:59;15.00;63.70
41116;DHT22;26861;51.824;4.682;2023-02-21T05:38:25;15.00;63.70
41116;DHT22;26861;51.824;4.682;2023-02-21T05:40:52;15.10;63.90
41116;DHT22;26861;51.824;4.682;2023-02-21T05:43:19;15.00;63.80
41116;DHT22;26861;51.824;4.682;2023-02-21T05:45:45;15.00;64.00
41116;DHT22;26861;51.824;4.682;2023-02-21T05:48:11;15.00;64.00
41116;DHT22;26861;51.824;4.682;2023-02-21T05:50:37;15.10;64.00
41116;DHT22;26861;51.824;4.682;2023-02-21T05:53:04;15.10;64.20
41116;DHT22;26861;51.824;4.682;2023-02-21T05:55:30;15.00;64.00
41116;DHT22;26861;51.824;4.682;2023-02-21T05:57:55;15.10;64.30
41116;DHT22;26861;51.824;4.682;2023-02-21T06:00:27;15.10;64.40
41116;DHT22;26861;51.824;4.682;2023-02-21T06:02:53;15.10;64.40
41116;DHT22;26861;51.824;4.682;2023-02-21T06:05:20;15.10;64.30
41116;DHT22;26861;51.824;4.682;2023-02-21T06:07:46;15.10;64.40
41116;DHT22;26861;51.824;4.682;2023-02-21T06:10:12;15.10;64.60
41116;DHT22;26861;51.824;4.682;2023-02-21T06:12:38;15.10;64.50
41116;DHT22;26861;51.824;4.682;2023-02-21T06:15:04;15.10;64.50
41116;DHT22;26861;51.824;4.682;2023-02-21T06:17:35;15.10;64.50
41116;DHT22;26861;51.824;4.682;2023-02-21T06:20:01;15.00;65.30
41116;DHT22;26861;51.824;4.682;2023-02-21T06:22:27;15.10;64.80
41116;DHT22;26861;51.824;4.682;2023-02-21T06:24:52;15.10;64.70
41116;DHT22;26861;51.824;4.682;2023-02-21T06:27:18;15.10;64.70
41116;DHT22;26861;51.824;4.682;2023-02-21T06:29:44;15.10;64.70
41116;DHT22;26861;51.824;4.682;2023-02-21T06:32:09;15.10;64.70
41116;DHT22;26861;51.824;4.682;2023-02-21T06:34:35;15.10;64.70
41116;DHT22;26861;51.824;4.682;2023-02-21T06:37:01;15.10;64.60
41116;DHT22;26861;51.824;4.682;2023-02-21T06:39:26;15.10;64.60
41116;DHT22;26861;51.824;4.682;2023-02-21T06:41:52;15.20;64.70
41116;DHT22;26861;51.824;4.682;2023-02-21T06:44:18;15.10;65.30
41116;DHT22;26861;51.824;4.682;2023-02-21T06:46:44;15.20;64.60
41116;DHT22;26861;51.824;4.682;2023-02-21T06:49:10;15.10;64.60
41116;DHT22;26861;51.824;4.682;2023-02-21T06:51:38;15.10;64.50
41116;DHT22;26861;51.824;4.682;2023-02-21T06:54:05;15.10;64.40
41116;DHT22;26861;51.824;4.682;2023-02-21T06:56:32;15.10;64.50
41116;DHT22;26861;51.824;4.682;2023-02-21T06:58:58;15.10;64.30
41116;DHT22;26861;51.824;4.682;2023-02-21T07:01:28;15.10;64.40
41116;DHT22;26861;51.824;4.682;2023-02-21T07:03:56;15.10;64.40
41116;DHT22;26861;51.824;4.682;2023-02-21T07:06:23;15.20;64.50
41116;DHT22;26861;51.824;4.682;2023-02-21T07:08:49;15.20;64.50
41116;DHT22;26861;51.824;4.682;2023-02-21T07:11:17;15.20;64.50
41116;DHT22;26861;51.824;4.682;2023-02-21T07:13:51;15.20;64.40
41116;DHT22;26861;51.824;4.682;2023-02-21T07:16:18;15.20;64.40
41116;DHT22;26861;51.824;4.682;2023-02-21T07:18:45;15.20;65.10
41116;DHT22;26861;51.824;4.682;2023-02-21T07:21:13;15.20;64.30
41116;DHT22;26861;51.824;4.682;2023-02-21T07:23:41;15.20;64.30
41116;DHT22;26861;51.824;4.682;2023-02-21T07:26:07;15.20;64.20
41116;DHT22;26861;51.824;4.682;2023-02-21T07:28:33;15.20;64.20
41116;DHT22;26861;51.824;4.682;2023-02-21T07:30:59;15.20;64.20
41116;DHT22;26861;51.824;4.682;2023-02-21T07:33:26;15.20;64.20
41116;DHT22;26861;51.824;4.682;2023-02-21T07:35:52;15.20;64.30
41116;DHT22;26861;51.824;4.682;2023-02-21T07:38:27;15.20;64.30
41116;DHT22;26861;51.824;4.682;2023-02-21T07:40:55;15.20;64.30
41116;DHT22;26861;51.824;4.682;2023-02-21T07:43:23;15.20;64.40
41116;DHT22;26861;51.824;4.682;2023-02-21T07:45:49;15.20;64.40
41116;DHT22;26861;51.824;4.682;2023-02-21T07:48:15;15.20;64.30
41116;DHT22;26861;51.824;4.682;2023-02-21T07:50:43;15.20;64.30
41116;DHT22;26861;51.824;4.682;2023-02-21T07:53:10;15.20;64.30
41116;DHT22;26861;51.824;4.682;2023-02-21T07:55:36;15.20;64.20
41116;DHT22;26861;51.824;4.682;2023-02-21T07:58:02;15.20;64.40
41116;DHT22;26861;51.824;4.682;2023-02-21T08:00:29;15.20;64.20
41116;DHT22;26861;51.824;4.682;2023-02-21T08:02:56;15.20;64.10
41116;DHT22;26861;51.824;4.682;2023-02-21T08:05:22;15.20;64.20
41116;DHT22;26861;51.824;4.682;2023-02-21T08:07:48;15.20;64.20
41116;DHT22;26861;51.824;4.682;2023-02-21T08:10:20;15.20;64.10
41116;DHT22;26861;51.824;4.682;2023-02-21T08:12:46;15.20;64.00
41116;DHT22;26861;51.824;4.682;2023-02-21T08:15:12;15.20;64.00
41116;DHT22;26861;51.824;4.682;2023-02-21T08:17:38;15.20;64.10
41116;DHT22;26861;51.824;4.682;2023-02-21T08:20:05;15.30;64.10
41116;DHT22;26861;51.824;4.682;2023-02-21T08:22:32;15.30;64.00
41116;DHT22;26861;51.824;4.682;2023-02-21T08:24:58;15.30;64.00
41116;DHT22;26861;51.824;4.682;2023-02-21T08:27:24;15.30;64.00
41116;DHT22;26861;51.824;4.682;2023-02-21T08:29:51;15.30;64.00
41116;DHT22;26861;51.824;4.682;2023-02-21T08:32:18;15.30;64.00
41116;DHT22;26861;51.824;4.682;2023-02-21T08:34:45;15.30;63.90
41116;DHT22;26861;51.824;4.682;2023-02-21T08:37:11;15.30;64.00
41116;DHT22;26861;51.824;4.682;2023-02-21T08:39:49;15.30;64.00
41116;DHT22;26861;51.824;4.682;2023-02-21T08:42:17;15.30;64.00
41116;DHT22;26861;51.824;4.682;2023-02-21T08:44:45;15.20;63.90
41116;DHT22;26861;51.824;4.682;2023-02-21T08:47:12;15.30;64.00
41116;DHT22;26861;51.824;4.682;2023-02-21T08:49:39;15.30;64.00
41116;DHT22;26861;51.824;4.682;2023-02-21T08:52:08;15.30;64.00
41116;DHT22;26861;51.824;4.682;2023-02-21T08:54:34;15.30;64.00
41116;DHT22;26861;51.824;4.682;2023-02-21T08:57:00;15.30;64.00
41116;DHT22;26861;51.824;4.682;2023-02-21T08:59:26;15.30;63.90
41116;DHT22;26861;51.824;4.682;2023-02-21T09:01:55;15.30;63.90
41116;DHT22;26861;51.824;4.682;2023-02-21T09:04:21;15.30;63.90
41116;DHT22;26861;51.824;4.682;2023-02-21T09:06:49;15.30;63.90
41116;DHT22;26861;51.824;4.682;2023-02-21T09:09:15;15.30;63.80
41116;DHT22;26861;51.824;4.682;2023-02-21T09:11:41;15.30;63.80
41116;DHT22;26861;51.824;4.682;2023-02-21T09:14:12;15.30;63.80
41116;DHT22;26861;51.824;4.682;2023-02-21T09:16:38;15.30;63.90
41116;DHT22;26861;51.824;4.682;2023-02-21T09:19:04;15.30;63.90
41116;DHT22;26861;51.824;4.682;2023-02-21T09:21:34;15.30;63.90
41116;DHT22;26861;51.824;4.682;2023-02-21T09:24:01;15.30;63.90
41116;DHT22;26861;51.824;4.682;2023-02-21T09:26:27;15.30;64.00
41116;DHT22;26861;51.824;4.682;2023-02-21T09:28:57;15.30;64.00
41116;DHT22;26861;51.824;4.682;2023-02-21T09:31:23;15.30;64.00
41116;DHT22;26861;51.824;4.682;2023-02-21T09:33:48;15.30;63.90
41116;DHT22;26861;51.824;4.682;2023-02-21T09:36:14;15.30;64.00
41116;DHT22;26861;51.824;4.682;2023-02-21T09:38:40;15.30;64.00
41116;DHT22;26861;51.824;4.682;2023-02-21T09:41:09;15.30;64.00
41116;DHT22;26861;51.824;4.682;2023-02-21T09:43:37;15.30;63.90
41116;DHT22;26861;51.824;4.682;2023-02-21T09:46:18;15.30;63.90
41116;DHT22;26861;51.824;4.682;2023-02-21T09:48:46;15.30;64.00
41116;DHT22;26861;51.824;4.682;2023-02-21T09:51:13;15.30;64.00
41116;DHT22;26861;51.824;4.682;2023-02-21T09:53:47;15.30;64.00
41116;DHT22;26861;51.824;4.682;2023-02-21T09:56:34;15.30;63.90
41116;DHT22;26861;51.824;4.682;2023-02-21T09:59:00;15.30;63.90
41116;DHT22;26861;51.824;4.682;2023-02-21T10:07:13;15.30;63.90
41116;DHT22;26861;51.824;4.682;2023-02-21T10:10:16;15.30;63.90
41116;DHT22;26861;51.824;4.682;2023-02-21T10:13:22;15.30;64.50
41116;DHT22;26861;51.824;4.682;2023-02-21T10:16:32;15.30;64.00
41116;DHT22;26861;51.824;4.682;2023-02-21T10:21:30;15.30;63.80
41116;DHT22;26861;51.824;4.682;2023-02-21T10:23:57;15.30;63.90
41116;DHT22;26861;51.824;4.682;2023-02-21T10:26:34;15.30;64.70
41116;DHT22;26861;51.824;4.682;2023-02-21T10:29:07;15.30;64.00
41116;DHT22;26861;51.824;4.682;2023-02-21T10:31:42;15.30;64.00
41116;DHT22;26861;51.824;4.682;2023-02-21T10:34:22;15.30;64.00
41116;DHT22;26861;51.824;4.682;2023-02-21T10:36:50;15.30;63.90
41116;DHT22;26861;51.824;4.682;2023-02-21T10:39:24;15.30;64.00
41116;DHT22;26861;51.824;4.682;2023-02-21T10:41:55;15.30;63.90
41116;DHT22;26861;51.824;4.682;2023-02-21T10:44:28;15.30;63.90
41116;DHT22;26861;51.824;4.682;2023-02-21T10:47:19;15.30;63.80
41116;DHT22;26861;51.824;4.682;2023-02-21T10:52:23;15.30;63.90
41116;DHT22;26861;51.824;4.682;2023-02-21T10:55:16;15.30;63.80
41116;DHT22;26861;51.824;4.682;2023-02-21T10:57:44;15.30;63.80
41116;DHT22;26861;51.824;4.682;2023-02-21T11:00:37;15.30;63.80
41116;DHT22;26861;51.824;4.682;2023-02-21T11:05:51;15.30;63.80
41116;DHT22;26861;51.824;4.682;2023-02-21T11:08:39;15.30;63.80
41116;DHT22;26861;51.824;4.682;2023-02-21T11:11:05;15.30;63.80
41116;DHT22;26861;51.824;4.682;2023-02-21T11:13:32;15.30;63.80
41116;DHT22;26861;51.824;4.682;2023-02-21T11:16:15;15.30;63.70
41116;DHT22;26861;51.824;4.682;2023-02-21T11:18:43;15.30;63.80
41116;DHT22;26861;51.824;4.682;2023-02-21T11:21:15;15.30;63.80
41116;DHT22;26861;51.824;4.682;2023-02-21T11:23:55;15.30;63.70
41116;DHT22;26861;51.824;4.682;2023-02-21T11:26:29;15.30;63.70
41116;DHT22;26861;51.824;4.682;2023-02-21T11:29:14;15.30;63.70
41116;DHT22;26861;51.824;4.682;2023-02-21T11:31:42;15.30;63.70
41116;DHT22;26861;51.824;4.682;2023-02-21T11:34:10;15.30;63.70
41116;DHT22;26861;51.824;4.682;2023-02-21T11:36:41;15.30;63.70
41116;DHT22;26861;51.824;4.682;2023-02-21T11:39:17;15.30;63.70
41116;DHT22;26861;51.824;4.682;2023-02-21T11:41:49;15.30;63.60
41116;DHT22;26861;51.824;4.682;2023-02-21T11:44:35;15.30;63.60
41116;DHT22;26861;51.824;4.682;2023-02-21T11:47:34;15.30;63.60
41116;DHT22;26861;51.824;4.682;2023-02-21T11:52:38;15.30;63.60
41116;DHT22;26861;51.824;4.682;2023-02-21T11:55:16;15.30;63.60
41116;DHT22;26861;51.824;4.682;2023-02-21T12:04:00;15.30;64.20
41116;DHT22;26861;51.824;4.682;2023-02-21T12:06:56;15.30;63.60
41116;DHT22;26861;51.824;4.682;2023-02-21T12:09:26;15.30;63.60
41116;DHT22;26861;51.824;4.682;2023-02-21T12:12:00;15.30;63.60
41116;DHT22;26861;51.824;4.682;2023-02-21T12:14:33;15.30;63.60
41116;DHT22;26861;51.824;4.682;2023-02-21T12:20:06;15.30;63.60
41116;DHT22;26861;51.824;4.682;2023-02-21T12:28:28;15.30;63.60
41116;DHT22;26861;51.824;4.682;2023-02-21T12:34:06;15.30;63.60
41116;DHT22;26861;51.824;4.682;2023-02-21T12:39:49;15.30;63.60
41116;DHT22;26861;51.824;4.682;2023-02-21T12:42:42;15.30;64.30
41116;DHT22;26861;51.824;4.682;2023-02-21T12:50:39;15.30;63.60
41116;DHT22;26861;51.824;4.682;2023-02-21T12:53:31;15.30;64.30
41116;DHT22;26861;51.824;4.682;2023-02-21T12:56:27;15.30;63.60
41116;DHT22;26861;51.824;4.682;2023-02-21T12:59:10;15.30;63.60
41116;DHT22;26861;51.824;4.682;2023-02-21T13:01:55;15.30;63.60
41116;DHT22;26861;51.824;4.682;2023-02-21T13:04:39;15.30;63.50
41116;DHT22;26861;51.824;4.682;2023-02-21T13:07:34;15.30;63.50
41116;DHT22;26861;51.824;4.682;2023-02-21T13:13:14;15.30;63.50
41116;DHT22;26861;51.824;4.682;2023-02-21T13:15:42;15.30;63.40
41116;DHT22;26861;51.824;4.682;2023-02-21T13:18:17;15.30;63.50
41116;DHT22;26861;51.824;4.682;2023-02-21T13:20:50;15.30;64.10
41116;DHT22;26861;51.824;4.682;2023-02-21T13:29:27;15.30;63.40
41116;DHT22;26861;51.824;4.682;2023-02-21T13:31:59;15.30;63.40
41116;DHT22;26861;51.824;4.682;2023-02-21T13:34:29;15.30;63.40
41116;DHT22;26861;51.824;4.682;2023-02-21T13:37:07;15.30;63.40
41116;DHT22;26861;51.824;4.682;2023-02-21T13:39:34;15.30;63.40
41116;DHT22;26861;51.824;4.682;2023-02-21T13:42:07;15.30;63.40
41116;DHT22;26861;51.824;4.682;2023-02-21T13:44:35;15.30;63.40
41116;DHT22;26861;51.824;4.682;2023-02-21T13:47:06;15.30;63.40
41116;DHT22;26861;51.824;4.682;2023-02-21T13:57:47;15.30;63.40
41116;DHT22;26861;51.824;4.682;2023-02-21T14:13:37;15.30;63.20
41116;DHT22;26861;51.824;4.682;2023-02-21T14:21:47;15.30;63.20
41116;DHT22;26861;51.824;4.682;2023-02-21T14:24:20;15.20;63.20
41116;DHT22;26861;51.824;4.682;2023-02-21T14:27:04;15.20;63.20
41116;DHT22;26861;51.824;4.682;2023-02-21T14:37:26;15.20;63.20
41116;DHT22;26861;51.824;4.682;2023-02-21T14:51:47;15.30;63.20
41116;DHT22;26861;51.824;4.682;2023-02-21T14:54:32;15.30;63.10
41116;DHT22;26861;51.824;4.682;2023-02-21T14:57:27;15.20;63.00
41116;DHT22;26861;51.824;4.682;2023-02-21T15:05:59;15.20;63.00
41116;DHT22;26861;51.824;4.682;2023-02-21T15:08:28;15.20;63.00
41116;DHT22;26861;51.824;4.682;2023-02-21T15:11:34;15.20;63.00
41116;DHT22;26861;51.824;4.682;2023-02-21T15:14:20;15.20;63.00
41116;DHT22;26861;51.824;4.682;2023-02-21T15:16:56;15.20;63.10
41116;DHT22;26861;51.824;4.682;2023-02-21T15:24:38;15.20;63.00
41116;DHT22;26861;51.824;4.682;2023-02-21T15:27:11;15.20;63.00
41116;DHT22;26861;51.824;4.682;2023-02-21T15:29:39;15.20;63.00
41116;DHT22;26861;51.824;4.682;2023-02-21T15:32:06;15.20;63.00
41116;DHT22;26861;51.824;4.682;2023-02-21T15:34:39;15.20;63.00
41116;DHT22;26861;51.824;4.682;2023-02-21T15:37:16;15.20;63.00
41116;DHT22;26861;51.824;4.682;2023-02-21T15:40:10;15.30;63.00
41116;DHT22;26861;51.824;4.682;2023-02-21T15:42:40;15.20;62.90
41116;DHT22;26861;51.824;4.682;2023-02-21T15:47:46;15.20;62.90
41116;DHT22;26861;51.824;4.682;2023-02-21T15:50:29;15.20;62.90
41116;DHT22;26861;51.824;4.682;2023-02-21T15:53:10;15.20;62.90
41116;DHT22;26861;51.824;4.682;2023-02-21T15:55:36;15.20;63.50
41116;DHT22;26861;51.824;4.682;2023-02-21T15:58:10;15.20;62.90
41116;DHT22;26861;51.824;4.682;2023-02-21T16:00:43;15.20;62.90
41116;DHT22;26861;51.824;4.682;2023-02-21T16:03:31;15.20;62.90
41116;DHT22;26861;51.824;4.682;2023-02-21T16:09:05;15.20;62.80
41116;DHT22;26861;51.824;4.682;2023-02-21T16:11:50;15.20;62.80
41116;DHT22;26861;51.824;4.682;2023-02-21T16:14:17;15.20;62.80
41116;DHT22;26861;51.824;4.682;2023-02-21T16:16:44;15.10;62.70
41116;DHT22;26861;51.824;4.682;2023-02-21T16:19:11;15.20;62.80
41116;DHT22;26861;51.824;4.682;2023-02-21T16:21:37;15.20;62.80
41116;DHT22;26861;51.824;4.682;2023-02-21T16:24:39;15.10;62.70
41116;DHT22;26861;51.824;4.682;2023-02-21T16:27:15;15.10;62.60
41116;DHT22;26861;51.824;4.682;2023-02-21T16:29:41;15.20;62.70
41116;DHT22;26861;51.824;4.682;2023-02-21T16:32:33;15.10;62.70
41116;DHT22;26861;51.824;4.682;2023-02-21T16:35:00;15.20;62.70
41116;DHT22;26861;51.824;4.682;2023-02-21T16:37:26;15.10;62.60
41116;DHT22;26861;51.824;4.682;2023-02-21T16:39:53;15.10;62.60
41116;DHT22;26861;51.824;4.682;2023-02-21T16:42:19;15.10;62.60
41116;DHT22;26861;51.824;4.682;2023-02-21T16:44:45;15.10;62.50
41116;DHT22;26861;51.824;4.682;2023-02-21T16:47:13;15.10;62.50
41116;DHT22;26861;51.824;4.682;2023-02-21T16:49:40;15.10;62.50
41116;DHT22;26861;51.824;4.682;2023-02-21T16:52:14;15.10;63.20
41116;DHT22;26861;51.824;4.682;2023-02-21T16:54:40;15.10;62.40
41116;DHT22;26861;51.824;4.682;2023-02-21T16:57:06;15.10;63.10
41116;DHT22;26861;51.824;4.682;2023-02-21T16:59:32;15.10;62.60
41116;DHT22;26861;51.824;4.682;2023-02-21T17:01:58;15.10;62.50
41116;DHT22;26861;51.824;4.682;2023-02-21T17:04:26;15.10;62.50
41116;DHT22;26861;51.824;4.682;2023-02-21T17:06:58;15.10;62.40
41116;DHT22;26861;51.824;4.682;2023-02-21T17:09:26;15.10;62.50
41116;DHT22;26861;51.824;4.682;2023-02-21T17:11:53;15.10;62.50
41116;DHT22;26861;51.824;4.682;2023-02-21T17:14:19;15.10;63.20
41116;DHT22;26861;51.824;4.682;2023-02-21T17:16:45;15.00;62.40
41116;DHT22;26861;51.824;4.682;2023-02-21T17:19:13;15.10;62.40
41116;DHT22;26861;51.824;4.682;2023-02-21T17:21:40;15.10;62.50
41116;DHT22;26861;51.824;4.682;2023-02-21T17:24:06;15.10;63.10
41116;DHT22;26861;51.824;4.682;2023-02-21T17:26:33;15.00;62.40
41116;DHT22;26861;51.824;4.682;2023-02-21T17:28:59;15.00;62.40
41116;DHT22;26861;51.824;4.682;2023-02-21T17:31:25;15.00;62.40
41116;DHT22;26861;51.824;4.682;2023-02-21T17:33:51;15.00;62.40
41116;DHT22;26861;51.824;4.682;2023-02-21T17:36:18;15.00;62.40
41116;DHT22;26861;51.824;4.682;2023-02-21T17:38:45;15.00;62.40
41116;DHT22;26861;51.824;4.682;2023-02-21T17:41:11;15.00;62.40
41116;DHT22;26861;51.824;4.682;2023-02-21T17:43:37;15.00;62.40
41116;DHT22;26861;51.824;4.682;2023-02-21T17:46:04;15.00;62.40
41116;DHT22;26861;51.824;4.682;2023-02-21T17:48:33;15.00;62.40
41116;DHT22;26861;51.824;4.682;2023-02-21T17:50:58;15.00;62.40
41116;DHT22;26861;51.824;4.682;2023-02-21T17:53:24;15.10;63.10
41116;DHT22;26861;51.824;4.682;2023-02-21T17:55:49;15.00;62.40
41116;DHT22;26861;51.824;4.682;2023-02-21T17:58:15;15.00;62.40
41116;DHT22;26861;51.824;4.682;2023-02-21T18:00:41;15.00;62.40
41116;DHT22;26861;51.824;4.682;2023-02-21T18:03:07;15.00;62.30
41116;DHT22;26861;51.824;4.682;2023-02-21T18:05:33;15.00;62.40
41116;DHT22;26861;51.824;4.682;2023-02-21T18:08:01;15.00;62.40
41116;DHT22;26861;51.824;4.682;2023-02-21T18:10:28;15.00;62.30
41116;DHT22;26861;51.824;4.682;2023-02-21T18:12:54;15.00;62.30
41116;DHT22;26861;51.824;4.682;2023-02-21T18:15:24;15.00;62.40
41116;DHT22;26861;51.824;4.682;2023-02-21T18:17:52;15.00;62.40
41116;DHT22;26861;51.824;4.682;2023-02-21T18:20:19;14.90;62.40
41116;DHT22;26861;51.824;4.682;2023-02-21T18:22:45;14.90;62.30
41116;DHT22;26861;51.824;4.682;2023-02-21T18:25:12;14.90;62.40
41116;DHT22;26861;51.824;4.682;2023-02-21T18:27:41;14.90;62.40
41116;DHT22;26861;51.824;4.682;2023-02-21T18:30:07;14.90;62.40
41116;DHT22;26861;51.824;4.682;2023-02-21T18:32:34;14.90;62.30